Flight Track Log - Related Links

Times and Time Zones

All times are in EDT time to prevent confusion due to time zone crossing. See the RPA4907 flight status page for this flight to view local times or setup timezone preferences in your user account.

Time Position Orientation Groundspeed Altitude Reporting Facility
EDT Latitude Longitude Course Direction KTS MPH feet Rate Location/Type
Sat 12:20:30 PM 40.6500 -74.1833 252° West 189 217 1,800  Level New York TRACON
Sat 12:21:30 PM 40.6333 -74.2500 252° West 218 251 3,900 2,050 Climbing New York TRACON
Sat 12:22:30 PM 40.6167 -74.3333 255° West 238 274 5,900 1,983 Climbing New York TRACON
Sat 12:23:31 PM 40.6167 -74.4167 270° West 236 272 7,900 1,877 Climbing New York TRACON
Sat 12:25:29 PM 40.5983 -74.5731 261° West 234 269 11,500 1,864 Climbing New York Center
Sat 12:26:28 PM 40.5647 -74.6447 238° Southwest 229 264 13,400 1,250 Climbing New York Center
Sat 12:27:29 PM 40.5331 -74.7194 241° Southwest 236 272 14,000 303 Climbing New York Center
Sat 12:28:27 PM 40.4947 -74.8047 239° Southwest 272 313 14,000  Level New York Center
Sat 12:29:27 PM 40.4472 -74.9136 240° Southwest 301 346 14,000  Level New York Center
Sat 12:30:28 PM 40.3981 -75.0089 236° Southwest 317 365 14,000  Level New York Center
Sat 12:31:28 PM 40.3364 -75.0950 227° Southwest 322 371 14,000  Level New York Center
Sat 12:32:29 PM 40.2794 -75.1703 225° Southwest 332 382 14,000  Level New York Center
Sat 12:33:29 PM 40.2114 -75.2664 227° Southwest 332 382 14,000  Level New York Center
Sat 12:34:27 PM 40.1475 -75.3519 226° Southwest 331 381 14,000  Level New York Center
Sat 12:35:27 PM 40.0944 -75.4272 227° Southwest 331 381 14,000  Level New York Center
Sat 12:36:28 PM 40.0261 -75.5203 226° Southwest 331 381 14,000  Level New York Center
Sat 12:37:28 PM 39.9711 -75.5950 226° Southwest 331 381 14,000 -397 Level New York Center
Sat 12:38:29 PM 39.9067 -75.6906 229° Southwest 331 381 13,200 -1,109 Descending New York Center
Sat 12:39:27 PM 39.8614 -75.7767 236° Southwest 326 375 11,800 -1,119 Descending New York Center
Sat 12:40:27 PM 39.8111 -75.8786 237° Southwest 320 368 11,000 -265 Descending New York Center
Sat 12:42:51 PM 39.7000 -76.1000 237° Southwest 314 361 10,900 -412 Descending Potomac TRACON
Sat 12:43:51 PM 39.6667 -76.2000 247° West 278 320 9,600 -1,550 Descending Potomac TRACON
Sat 12:44:51 PM 39.6333 -76.2833 243° Southwest 269 310 7,800 -1,600 Descending Potomac TRACON
Sat 12:45:51 PM 39.6167 -76.3667 255° West 246 283 6,400 -1,421 Descending Potomac TRACON
Sat 12:46:45 PM 39.5833 -76.4500 243° Southwest 252 290 5,100 -483 Descending Potomac TRACON
Sat 12:48:00 PM 39.4979 -76.4960 210° Southwest  Level Estimated
Sat 12:48:45 PM 39.4667 -76.5000 210° Southwest 255 293 5,000  Level Potomac TRACON
Sat 12:49:51 PM 39.3833 -76.5000 180° South 253 291 4,200 -500 Descending Potomac TRACON
Sat 12:50:45 PM 39.3167 -76.5000 180° South 247 284 4,000 -611 Descending Potomac TRACON
Sat 12:51:39 PM 39.2667 -76.4833 166° South 241 277 3,100 -500 Descending Potomac TRACON
Sat 12:52:45 PM 39.2000 -76.4833 180° South 220 253 3,000 -50 Descending Potomac TRACON
Sat 12:53:39 PM 39.1333 -76.4833 180° South 223 257 3,000 -500 Level Potomac TRACON
Sat 12:54:45 PM 39.0833 -76.5333 218° Southwest 215 247 2,000 -744 Descending Potomac TRACON
Sat 12:55:40 PM 39.0833 -76.5833 270° West 187 215 1,500 -470 Descending Potomac TRACON
Sat 12:56:40 PM 39.1333 -76.6333 322° Northwest 166 191 1,100 -550 Descending Potomac TRACON
Sat 12:57:40 PM 39.1500 -76.6500 322° Northwest 140 161 400 -700 Descending Potomac TRACON
Sat 12:59:00 PM 39.1667 -76.6667 270° West  Level FlightAware Approximate

Login

Don't have an account? Register now (free) for customized features, flight alerts, and more!